sensor_id;sensor_type;location;lat;lon;timestamp;temperature;humidity
12015;DHT22;6066;48.138;16.402;2023-11-19T00:00:06;2.40;99.90
12015;DHT22;6066;48.138;16.402;2023-11-19T00:02:36;2.40;99.90
12015;DHT22;6066;48.138;16.402;2023-11-19T00:05:05;2.40;99.90
12015;DHT22;6066;48.138;16.402;2023-11-19T00:07:35;2.40;99.90
12015;DHT22;6066;48.138;16.402;2023-11-19T00:10:02;2.40;99.90
12015;DHT22;6066;48.138;16.402;2023-11-19T00:12:36;2.40;99.90
12015;DHT22;6066;48.138;16.402;2023-11-19T00:15:04;2.40;99.90
12015;DHT22;6066;48.138;16.402;2023-11-19T00:17:32;2.40;99.90
12015;DHT22;6066;48.138;16.402;2023-11-19T00:19:59;2.40;99.90
12015;DHT22;6066;48.138;16.402;2023-11-19T00:22:27;2.30;99.90
12015;DHT22;6066;48.138;16.402;2023-11-19T00:24:54;2.30;99.90
12015;DHT22;6066;48.138;16.402;2023-11-19T00:27:21;2.30;99.90
12015;DHT22;6066;48.138;16.402;2023-11-19T00:29:48;2.30;99.90
12015;DHT22;6066;48.138;16.402;2023-11-19T00:32:14;2.30;99.90
12015;DHT22;6066;48.138;16.402;2023-11-19T00:34:43;2.30;99.90
12015;DHT22;6066;48.138;16.402;2023-11-19T00:37:11;2.30;99.90
12015;DHT22;6066;48.138;16.402;2023-11-19T00:39:39;2.30;99.90
12015;DHT22;6066;48.138;16.402;2023-11-19T00:42:06;2.40;99.90
12015;DHT22;6066;48.138;16.402;2023-11-19T00:44:33;2.40;99.90
12015;DHT22;6066;48.138;16.402;2023-11-19T00:47:00;2.40;99.90
12015;DHT22;6066;48.138;16.402;2023-11-19T00:49:27;2.40;99.90
12015;DHT22;6066;48.138;16.402;2023-11-19T00:51:54;2.40;99.90
12015;DHT22;6066;48.138;16.402;2023-11-19T00:54:21;2.40;99.90
12015;DHT22;6066;48.138;16.402;2023-11-19T00:56:52;2.30;99.90
12015;DHT22;6066;48.138;16.402;2023-11-19T00:59:19;2.30;99.90
12015;DHT22;6066;48.138;16.402;2023-11-19T01:01:46;2.30;99.90
12015;DHT22;6066;48.138;16.402;2023-11-19T01:04:14;2.30;99.90
12015;DHT22;6066;48.138;16.402;2023-11-19T01:06:41;2.30;99.90
12015;DHT22;6066;48.138;16.402;2023-11-19T01:09:09;2.30;99.90
12015;DHT22;6066;48.138;16.402;2023-11-19T01:11:36;2.30;99.90
12015;DHT22;6066;48.138;16.402;2023-11-19T01:14:04;2.30;99.90
12015;DHT22;6066;48.138;16.402;2023-11-19T01:16:31;2.30;99.90
12015;DHT22;6066;48.138;16.402;2023-11-19T01:18:58;2.40;99.90
12015;DHT22;6066;48.138;16.402;2023-11-19T01:21:29;2.40;99.90
12015;DHT22;6066;48.138;16.402;2023-11-19T01:23:57;2.50;99.90
12015;DHT22;6066;48.138;16.402;2023-11-19T01:26:25;2.50;99.90
12015;DHT22;6066;48.138;16.402;2023-11-19T01:28:52;2.60;99.90
12015;DHT22;6066;48.138;16.402;2023-11-19T01:31:20;2.60;99.90
12015;DHT22;6066;48.138;16.402;2023-11-19T01:33:47;2.60;99.90
12015;DHT22;6066;48.138;16.402;2023-11-19T01:36:14;2.60;99.90
12015;DHT22;6066;48.138;16.402;2023-11-19T01:38:41;2.70;99.90
12015;DHT22;6066;48.138;16.402;2023-11-19T01:41:08;2.70;99.90
12015;DHT22;6066;48.138;16.402;2023-11-19T01:43:36;2.70;99.90
12015;DHT22;6066;48.138;16.402;2023-11-19T01:46:05;2.70;99.90
12015;DHT22;6066;48.138;16.402;2023-11-19T01:48:39;2.70;99.90
12015;DHT22;6066;48.138;16.402;2023-11-19T01:51:08;2.70;99.90
12015;DHT22;6066;48.138;16.402;2023-11-19T01:53:37;2.70;99.90
12015;DHT22;6066;48.138;16.402;2023-11-19T01:56:05;2.70;99.90
12015;DHT22;6066;48.138;16.402;2023-11-19T01:58:35;2.70;99.90
12015;DHT22;6066;48.138;16.402;2023-11-19T02:01:03;2.70;99.90
12015;DHT22;6066;48.138;16.402;2023-11-19T02:03:31;2.70;99.90
12015;DHT22;6066;48.138;16.402;2023-11-19T02:06:00;2.70;99.90
12015;DHT22;6066;48.138;16.402;2023-11-19T02:08:28;2.70;99.90
12015;DHT22;6066;48.138;16.402;2023-11-19T02:10:55;2.70;99.90
12015;DHT22;6066;48.138;16.402;2023-11-19T02:13:23;2.80;99.90
12015;DHT22;6066;48.138;16.402;2023-11-19T02:15:51;2.80;99.90
12015;DHT22;6066;48.138;16.402;2023-11-19T02:18:19;2.80;99.90
12015;DHT22;6066;48.138;16.402;2023-11-19T02:20:45;2.70;99.90
12015;DHT22;6066;48.138;16.402;2023-11-19T02:23:14;2.80;99.90
12015;DHT22;6066;48.138;16.402;2023-11-19T02:25:43;2.80;99.90
12015;DHT22;6066;48.138;16.402;2023-11-19T02:28:12;2.80;99.90
12015;DHT22;6066;48.138;16.402;2023-11-19T02:30:39;2.80;99.90
12015;DHT22;6066;48.138;16.402;2023-11-19T02:33:06;2.80;99.90
12015;DHT22;6066;48.138;16.402;2023-11-19T02:35:34;2.80;99.90
12015;DHT22;6066;48.138;16.402;2023-11-19T02:38:01;2.80;99.90
12015;DHT22;6066;48.138;16.402;2023-11-19T02:40:29;2.90;99.90
12015;DHT22;6066;48.138;16.402;2023-11-19T02:42:56;2.90;99.90
12015;DHT22;6066;48.138;16.402;2023-11-19T02:45:25;2.90;99.90
12015;DHT22;6066;48.138;16.402;2023-11-19T02:47:52;2.90;99.90
12015;DHT22;6066;48.138;16.402;2023-11-19T02:50:21;2.90;99.90
12015;DHT22;6066;48.138;16.402;2023-11-19T02:52:53;2.90;99.90
12015;DHT22;6066;48.138;16.402;2023-11-19T02:55:22;2.90;99.90
12015;DHT22;6066;48.138;16.402;2023-11-19T02:57:49;2.90;99.90
12015;DHT22;6066;48.138;16.402;2023-11-19T03:00:19;2.90;99.90
12015;DHT22;6066;48.138;16.402;2023-11-19T03:02:51;2.90;99.90
12015;DHT22;6066;48.138;16.402;2023-11-19T03:05:25;3.00;99.90
12015;DHT22;6066;48.138;16.402;2023-11-19T03:07:55;3.00;99.90
12015;DHT22;6066;48.138;16.402;2023-11-19T03:10:22;3.10;99.90
12015;DHT22;6066;48.138;16.402;2023-11-19T03:12:49;3.10;99.90
12015;DHT22;6066;48.138;16.402;2023-11-19T03:15:16;3.10;99.90
12015;DHT22;6066;48.138;16.402;2023-11-19T03:17:43;3.10;99.90
12015;DHT22;6066;48.138;16.402;2023-11-19T03:20:12;3.20;99.90
12015;DHT22;6066;48.138;16.402;2023-11-19T03:22:41;3.20;99.90
12015;DHT22;6066;48.138;16.402;2023-11-19T03:25:09;3.10;99.90
12015;DHT22;6066;48.138;16.402;2023-11-19T03:27:37;3.10;99.90
12015;DHT22;6066;48.138;16.402;2023-11-19T03:30:05;3.10;99.90
12015;DHT22;6066;48.138;16.402;2023-11-19T03:32:32;3.10;99.90
12015;DHT22;6066;48.138;16.402;2023-11-19T03:35:00;3.00;99.90
12015;DHT22;6066;48.138;16.402;2023-11-19T03:37:30;3.00;99.90
12015;DHT22;6066;48.138;16.402;2023-11-19T03:39:58;3.00;99.90
12015;DHT22;6066;48.138;16.402;2023-11-19T03:42:26;2.90;99.90
12015;DHT22;6066;48.138;16.402;2023-11-19T03:44:53;2.90;99.90
12015;DHT22;6066;48.138;16.402;2023-11-19T03:47:20;2.90;99.90
12015;DHT22;6066;48.138;16.402;2023-11-19T03:49:48;2.80;99.90
12015;DHT22;6066;48.138;16.402;2023-11-19T03:52:15;2.80;99.90
12015;DHT22;6066;48.138;16.402;2023-11-19T03:54:44;2.80;99.90
12015;DHT22;6066;48.138;16.402;2023-11-19T03:57:12;2.70;99.90
12015;DHT22;6066;48.138;16.402;2023-11-19T03:59:39;2.70;99.90
12015;DHT22;6066;48.138;16.402;2023-11-19T04:02:06;2.70;99.90
12015;DHT22;6066;48.138;16.402;2023-11-19T04:04:33;2.70;99.90
12015;DHT22;6066;48.138;16.402;2023-11-19T04:07:00;2.70;99.90
12015;DHT22;6066;48.138;16.402;2023-11-19T04:09:28;2.70;99.90
12015;DHT22;6066;48.138;16.402;2023-11-19T04:11:57;2.70;99.90
12015;DHT22;6066;48.138;16.402;2023-11-19T04:14:24;2.60;99.90
12015;DHT22;6066;48.138;16.402;2023-11-19T04:16:51;2.60;99.90
12015;DHT22;6066;48.138;16.402;2023-11-19T04:19:18;2.60;99.90
12015;DHT22;6066;48.138;16.402;2023-11-19T04:21:44;2.60;99.90
12015;DHT22;6066;48.138;16.402;2023-11-19T04:24:12;2.60;99.90
12015;DHT22;6066;48.138;16.402;2023-11-19T04:26:41;2.60;99.90
12015;DHT22;6066;48.138;16.402;2023-11-19T04:29:11;2.60;99.90
12015;DHT22;6066;48.138;16.402;2023-11-19T04:31:39;2.60;99.90
12015;DHT22;6066;48.138;16.402;2023-11-19T04:34:05;2.60;99.90
12015;DHT22;6066;48.138;16.402;2023-11-19T04:36:33;2.60;99.90
12015;DHT22;6066;48.138;16.402;2023-11-19T04:39:00;2.60;99.90
12015;DHT22;6066;48.138;16.402;2023-11-19T04:41:28;2.60;99.90
12015;DHT22;6066;48.138;16.402;2023-11-19T04:43:55;2.60;99.90
12015;DHT22;6066;48.138;16.402;2023-11-19T04:46:23;2.60;99.90
12015;DHT22;6066;48.138;16.402;2023-11-19T04:48:50;2.60;99.90
12015;DHT22;6066;48.138;16.402;2023-11-19T04:51:17;2.70;99.90
12015;DHT22;6066;48.138;16.402;2023-11-19T04:53:44;2.70;99.90
12015;DHT22;6066;48.138;16.402;2023-11-19T04:56:12;2.70;99.90
12015;DHT22;6066;48.138;16.402;2023-11-19T04:58:39;2.60;99.90
12015;DHT22;6066;48.138;16.402;2023-11-19T05:01:14;2.60;99.90
12015;DHT22;6066;48.138;16.402;2023-11-19T05:03:43;2.60;99.90
12015;DHT22;6066;48.138;16.402;2023-11-19T05:06:10;2.60;99.90
12015;DHT22;6066;48.138;16.402;2023-11-19T05:08:37;2.60;99.90
12015;DHT22;6066;48.138;16.402;2023-11-19T05:11:05;2.60;99.90
12015;DHT22;6066;48.138;16.402;2023-11-19T05:13:32;2.60;99.90
12015;DHT22;6066;48.138;16.402;2023-11-19T05:15:59;2.60;99.90
12015;DHT22;6066;48.138;16.402;2023-11-19T05:18:27;2.60;99.90
12015;DHT22;6066;48.138;16.402;2023-11-19T05:20:55;2.60;99.90
12015;DHT22;6066;48.138;16.402;2023-11-19T05:23:22;2.60;99.90
12015;DHT22;6066;48.138;16.402;2023-11-19T05:25:49;2.60;99.90
12015;DHT22;6066;48.138;16.402;2023-11-19T05:28:16;2.60;99.90
12015;DHT22;6066;48.138;16.402;2023-11-19T05:30:43;2.60;99.90
12015;DHT22;6066;48.138;16.402;2023-11-19T05:33:10;2.60;99.90
12015;DHT22;6066;48.138;16.402;2023-11-19T05:35:37;2.60;99.90
12015;DHT22;6066;48.138;16.402;2023-11-19T05:38:05;2.60;99.90
12015;DHT22;6066;48.138;16.402;2023-11-19T05:40:32;2.60;99.90
12015;DHT22;6066;48.138;16.402;2023-11-19T05:42:59;2.60;99.90
12015;DHT22;6066;48.138;16.402;2023-11-19T05:45:26;2.60;99.90
12015;DHT22;6066;48.138;16.402;2023-11-19T05:47:53;2.60;99.90
12015;DHT22;6066;48.138;16.402;2023-11-19T05:50:20;2.60;99.90
12015;DHT22;6066;48.138;16.402;2023-11-19T05:52:47;2.60;99.90
12015;DHT22;6066;48.138;16.402;2023-11-19T05:55:16;2.60;99.90
12015;DHT22;6066;48.138;16.402;2023-11-19T05:57:43;2.60;99.90
12015;DHT22;6066;48.138;16.402;2023-11-19T06:00:11;2.60;99.90
12015;DHT22;6066;48.138;16.402;2023-11-19T06:02:41;2.60;99.90
12015;DHT22;6066;48.138;16.402;2023-11-19T06:05:08;2.60;99.90
12015;DHT22;6066;48.138;16.402;2023-11-19T06:07:35;2.60;99.90
12015;DHT22;6066;48.138;16.402;2023-11-19T06:10:05;2.60;99.90
12015;DHT22;6066;48.138;16.402;2023-11-19T06:12:34;2.60;99.90
12015;DHT22;6066;48.138;16.402;2023-11-19T06:15:05;2.60;99.90
12015;DHT22;6066;48.138;16.402;2023-11-19T06:17:32;2.60;99.90
12015;DHT22;6066;48.138;16.402;2023-11-19T06:19:59;2.60;99.90
12015;DHT22;6066;48.138;16.402;2023-11-19T06:22:26;2.70;99.90
12015;DHT22;6066;48.138;16.402;2023-11-19T06:24:53;2.70;99.90
12015;DHT22;6066;48.138;16.402;2023-11-19T06:27:20;2.70;99.90
12015;DHT22;6066;48.138;16.402;2023-11-19T06:29:49;2.80;99.90
12015;DHT22;6066;48.138;16.402;2023-11-19T06:32:16;2.80;99.90
12015;DHT22;6066;48.138;16.402;2023-11-19T06:34:43;2.80;99.90
12015;DHT22;6066;48.138;16.402;2023-11-19T06:37:10;2.80;99.90
12015;DHT22;6066;48.138;16.402;2023-11-19T06:39:37;2.80;99.90
12015;DHT22;6066;48.138;16.402;2023-11-19T06:42:04;2.90;99.90
12015;DHT22;6066;48.138;16.402;2023-11-19T06:44:31;2.90;99.90
12015;DHT22;6066;48.138;16.402;2023-11-19T06:46:59;2.80;99.90
12015;DHT22;6066;48.138;16.402;2023-11-19T06:49:26;2.80;99.90
12015;DHT22;6066;48.138;16.402;2023-11-19T06:51:53;2.80;99.90
12015;DHT22;6066;48.138;16.402;2023-11-19T06:54:20;2.80;99.90
12015;DHT22;6066;48.138;16.402;2023-11-19T06:56:48;2.80;99.90
12015;DHT22;6066;48.138;16.402;2023-11-19T06:59:15;2.80;99.90
12015;DHT22;6066;48.138;16.402;2023-11-19T07:01:42;2.80;99.90
12015;DHT22;6066;48.138;16.402;2023-11-19T07:04:12;2.70;99.90
12015;DHT22;6066;48.138;16.402;2023-11-19T07:06:39;2.70;99.90
12015;DHT22;6066;48.138;16.402;2023-11-19T07:09:07;2.70;99.90
12015;DHT22;6066;48.138;16.402;2023-11-19T07:11:36;2.70;99.90
12015;DHT22;6066;48.138;16.402;2023-11-19T07:14:04;2.70;99.90
12015;DHT22;6066;48.138;16.402;2023-11-19T07:16:32;2.70;99.90
12015;DHT22;6066;48.138;16.402;2023-11-19T07:19:00;2.70;99.90
12015;DHT22;6066;48.138;16.402;2023-11-19T07:21:28;2.80;99.90
12015;DHT22;6066;48.138;16.402;2023-11-19T07:23:55;2.80;99.90
12015;DHT22;6066;48.138;16.402;2023-11-19T07:26:23;2.80;99.90
12015;DHT22;6066;48.138;16.402;2023-11-19T07:28:50;2.80;99.90
12015;DHT22;6066;48.138;16.402;2023-11-19T07:31:17;2.80;99.90
12015;DHT22;6066;48.138;16.402;2023-11-19T07:33:45;2.80;99.90
12015;DHT22;6066;48.138;16.402;2023-11-19T07:36:13;2.80;99.90
12015;DHT22;6066;48.138;16.402;2023-11-19T07:38:41;2.90;99.90
12015;DHT22;6066;48.138;16.402;2023-11-19T07:41:08;2.90;99.90
12015;DHT22;6066;48.138;16.402;2023-11-19T07:43:39;2.90;99.90
12015;DHT22;6066;48.138;16.402;2023-11-19T07:46:10;2.90;99.90
12015;DHT22;6066;48.138;16.402;2023-11-19T07:48:38;2.90;99.90
12015;DHT22;6066;48.138;16.402;2023-11-19T07:51:05;3.00;99.90
12015;DHT22;6066;48.138;16.402;2023-11-19T07:53:32;3.00;99.90
12015;DHT22;6066;48.138;16.402;2023-11-19T07:56:01;3.00;99.90
12015;DHT22;6066;48.138;16.402;2023-11-19T07:58:28;3.10;99.90
12015;DHT22;6066;48.138;16.402;2023-11-19T08:00:55;3.10;99.90
12015;DHT22;6066;48.138;16.402;2023-11-19T08:03:22;3.20;99.90
12015;DHT22;6066;48.138;16.402;2023-11-19T08:05:49;3.20;99.90
12015;DHT22;6066;48.138;16.402;2023-11-19T08:08:16;3.20;99.90
12015;DHT22;6066;48.138;16.402;2023-11-19T08:10:43;3.30;99.90
12015;DHT22;6066;48.138;16.402;2023-11-19T08:13:12;3.30;99.90
12015;DHT22;6066;48.138;16.402;2023-11-19T08:15:39;3.30;99.90
12015;DHT22;6066;48.138;16.402;2023-11-19T08:18:06;3.30;99.90
12015;DHT22;6066;48.138;16.402;2023-11-19T08:20:34;3.40;99.90
12015;DHT22;6066;48.138;16.402;2023-11-19T08:23:02;3.50;99.90
12015;DHT22;6066;48.138;16.402;2023-11-19T08:25:30;3.50;99.90
12015;DHT22;6066;48.138;16.402;2023-11-19T08:27:59;3.60;99.90
12015;DHT22;6066;48.138;16.402;2023-11-19T08:30:27;3.60;99.90
12015;DHT22;6066;48.138;16.402;2023-11-19T08:32:55;3.70;99.90
12015;DHT22;6066;48.138;16.402;2023-11-19T08:35:21;3.70;99.90
12015;DHT22;6066;48.138;16.402;2023-11-19T08:37:49;3.70;99.90
12015;DHT22;6066;48.138;16.402;2023-11-19T08:40:17;3.80;99.90
12015;DHT22;6066;48.138;16.402;2023-11-19T08:42:45;3.80;99.90
12015;DHT22;6066;48.138;16.402;2023-11-19T08:45:12;3.90;99.90
12015;DHT22;6066;48.138;16.402;2023-11-19T08:47:41;4.00;99.90
12015;DHT22;6066;48.138;16.402;2023-11-19T08:50:08;4.00;99.90
12015;DHT22;6066;48.138;16.402;2023-11-19T08:52:36;4.10;99.90
12015;DHT22;6066;48.138;16.402;2023-11-19T08:55:03;4.10;99.90
12015;DHT22;6066;48.138;16.402;2023-11-19T08:57:31;4.20;99.90
12015;DHT22;6066;48.138;16.402;2023-11-19T08:59:58;4.20;99.90
12015;DHT22;6066;48.138;16.402;2023-11-19T09:02:25;4.30;99.90
12015;DHT22;6066;48.138;16.402;2023-11-19T09:04:53;4.30;99.90
12015;DHT22;6066;48.138;16.402;2023-11-19T09:07:20;4.30;99.90
12015;DHT22;6066;48.138;16.402;2023-11-19T09:09:48;4.40;99.90
12015;DHT22;6066;48.138;16.402;2023-11-19T09:12:14;4.50;99.90
12015;DHT22;6066;48.138;16.402;2023-11-19T09:14:41;4.50;99.90
12015;DHT22;6066;48.138;16.402;2023-11-19T09:17:08;4.60;99.90
12015;DHT22;6066;48.138;16.402;2023-11-19T09:19:36;4.60;99.90
12015;DHT22;6066;48.138;16.402;2023-11-19T09:22:04;4.60;99.90
12015;DHT22;6066;48.138;16.402;2023-11-19T09:24:31;4.60;99.90
12015;DHT22;6066;48.138;16.402;2023-11-19T09:26:58;4.70;99.90
12015;DHT22;6066;48.138;16.402;2023-11-19T09:29:25;4.80;99.90
12015;DHT22;6066;48.138;16.402;2023-11-19T09:31:52;4.80;99.90
12015;DHT22;6066;48.138;16.402;2023-11-19T09:34:19;4.80;99.90
12015;DHT22;6066;48.138;16.402;2023-11-19T09:36:46;4.90;99.90
12015;DHT22;6066;48.138;16.402;2023-11-19T09:39:15;4.90;99.90
12015;DHT22;6066;48.138;16.402;2023-11-19T09:41:43;5.00;99.90
12015;DHT22;6066;48.138;16.402;2023-11-19T09:44:11;5.10;99.90
12015;DHT22;6066;48.138;16.402;2023-11-19T09:46:39;5.10;99.90
12015;DHT22;6066;48.138;16.402;2023-11-19T09:49:08;5.10;99.90
12015;DHT22;6066;48.138;16.402;2023-11-19T09:51:37;5.10;99.90
12015;DHT22;6066;48.138;16.402;2023-11-19T09:54:04;5.10;99.90
12015;DHT22;6066;48.138;16.402;2023-11-19T09:56:33;5.10;99.90
12015;DHT22;6066;48.138;16.402;2023-11-19T09:59:02;5.00;99.90
12015;DHT22;6066;48.138;16.402;2023-11-19T10:01:29;5.00;99.90
12015;DHT22;6066;48.138;16.402;2023-11-19T10:03:57;5.00;99.90
12015;DHT22;6066;48.138;16.402;2023-11-19T10:06:25;5.00;99.90
12015;DHT22;6066;48.138;16.402;2023-11-19T10:08:53;5.00;99.90
12015;DHT22;6066;48.138;16.402;2023-11-19T10:11:21;5.00;99.90
12015;DHT22;6066;48.138;16.402;2023-11-19T10:13:49;5.00;99.90
12015;DHT22;6066;48.138;16.402;2023-11-19T10:16:17;5.10;99.90
12015;DHT22;6066;48.138;16.402;2023-11-19T10:18:45;5.10;99.90
12015;DHT22;6066;48.138;16.402;2023-11-19T10:21:13;5.10;99.90
12015;DHT22;6066;48.138;16.402;2023-11-19T10:23:49;5.10;99.90
12015;DHT22;6066;48.138;16.402;2023-11-19T10:26:18;5.10;99.90
12015;DHT22;6066;48.138;16.402;2023-11-19T10:28:46;5.10;99.90
12015;DHT22;6066;48.138;16.402;2023-11-19T10:31:15;5.00;99.90
12015;DHT22;6066;48.138;16.402;2023-11-19T10:33:42;5.00;99.90
12015;DHT22;6066;48.138;16.402;2023-11-19T10:36:11;5.00;99.90
12015;DHT22;6066;48.138;16.402;2023-11-19T10:38:39;5.10;99.90
12015;DHT22;6066;48.138;16.402;2023-11-19T10:41:06;5.00;99.90
12015;DHT22;6066;48.138;16.402;2023-11-19T10:43:43;5.00;99.90
12015;DHT22;6066;48.138;16.402;2023-11-19T10:46:12;5.00;99.90
12015;DHT22;6066;48.138;16.402;2023-11-19T10:48:44;5.00;99.90
12015;DHT22;6066;48.138;16.402;2023-11-19T10:51:13;5.00;99.90
12015;DHT22;6066;48.138;16.402;2023-11-19T10:53:49;5.10;99.90
12015;DHT22;6066;48.138;16.402;2023-11-19T10:56:20;5.10;99.90
12015;DHT22;6066;48.138;16.402;2023-11-19T10:58:51;5.20;99.90
12015;DHT22;6066;48.138;16.402;2023-11-19T11:01:20;5.20;99.90
12015;DHT22;6066;48.138;16.402;2023-11-19T11:03:51;5.10;99.90
12015;DHT22;6066;48.138;16.402;2023-11-19T11:06:20;5.10;99.90
12015;DHT22;6066;48.138;16.402;2023-11-19T11:08:49;5.20;99.90
12015;DHT22;6066;48.138;16.402;2023-11-19T11:11:16;5.20;99.90
12015;DHT22;6066;48.138;16.402;2023-11-19T11:13:47;5.20;99.90
12015;DHT22;6066;48.138;16.402;2023-11-19T11:16:18;5.30;99.90
12015;DHT22;6066;48.138;16.402;2023-11-19T11:18:46;5.30;99.90
12015;DHT22;6066;48.138;16.402;2023-11-19T11:21:22;5.30;99.90
12015;DHT22;6066;48.138;16.402;2023-11-19T11:24:11;5.40;99.90
12015;DHT22;6066;48.138;16.402;2023-11-19T11:27:08;5.50;99.90
12015;DHT22;6066;48.138;16.402;2023-11-19T11:29:47;5.50;99.90
12015;DHT22;6066;48.138;16.402;2023-11-19T11:32:28;5.50;99.90
12015;DHT22;6066;48.138;16.402;2023-11-19T11:35:12;5.50;99.90
12015;DHT22;6066;48.138;16.402;2023-11-19T11:37:45;5.50;99.90
12015;DHT22;6066;48.138;16.402;2023-11-19T11:40:14;5.50;99.90
12015;DHT22;6066;48.138;16.402;2023-11-19T11:42:41;5.50;99.90
12015;DHT22;6066;48.138;16.402;2023-11-19T11:45:09;5.50;99.90
12015;DHT22;6066;48.138;16.402;2023-11-19T11:50:54;5.50;99.90
12015;DHT22;6066;48.138;16.402;2023-11-19T11:53:24;5.40;99.90
12015;DHT22;6066;48.138;16.402;2023-11-19T11:55:57;5.40;99.90
12015;DHT22;6066;48.138;16.402;2023-11-19T11:58:30;5.30;99.90
12015;DHT22;6066;48.138;16.402;2023-11-19T12:00:58;5.30;99.90
12015;DHT22;6066;48.138;16.402;2023-11-19T12:03:28;5.30;99.90
12015;DHT22;6066;48.138;16.402;2023-11-19T12:05:56;5.30;99.90
12015;DHT22;6066;48.138;16.402;2023-11-19T12:08:29;5.30;99.90
12015;DHT22;6066;48.138;16.402;2023-11-19T12:10:57;5.30;99.90
12015;DHT22;6066;48.138;16.402;2023-11-19T12:13:47;5.30;99.90
12015;DHT22;6066;48.138;16.402;2023-11-19T12:16:15;5.40;99.90
12015;DHT22;6066;48.138;16.402;2023-11-19T12:18:42;5.30;99.90
12015;DHT22;6066;48.138;16.402;2023-11-19T12:21:09;5.40;99.90
12015;DHT22;6066;48.138;16.402;2023-11-19T12:23:46;5.40;99.90
12015;DHT22;6066;48.138;16.402;2023-11-19T12:26:34;5.40;99.90
12015;DHT22;6066;48.138;16.402;2023-11-19T12:29:02;5.40;99.90
12015;DHT22;6066;48.138;16.402;2023-11-19T12:31:32;5.50;99.90
12015;DHT22;6066;48.138;16.402;2023-11-19T12:34:08;5.50;99.90
12015;DHT22;6066;48.138;16.402;2023-11-19T12:36:38;5.50;99.90
12015;DHT22;6066;48.138;16.402;2023-11-19T12:39:07;5.50;99.90
12015;DHT22;6066;48.138;16.402;2023-11-19T12:41:52;5.50;99.90
12015;DHT22;6066;48.138;16.402;2023-11-19T12:44:19;5.60;99.90
12015;DHT22;6066;48.138;16.402;2023-11-19T12:46:47;5.60;99.90
12015;DHT22;6066;48.138;16.402;2023-11-19T12:49:25;5.60;99.90
12015;DHT22;6066;48.138;16.402;2023-11-19T12:51:52;5.60;99.90
12015;DHT22;6066;48.138;16.402;2023-11-19T12:54:31;5.60;99.90
12015;DHT22;6066;48.138;16.402;2023-11-19T12:56:58;5.60;99.90
12015;DHT22;6066;48.138;16.402;2023-11-19T12:59:25;5.60;99.90
12015;DHT22;6066;48.138;16.402;2023-11-19T13:01:56;5.60;99.90
12015;DHT22;6066;48.138;16.402;2023-11-19T13:04:28;5.60;99.90
12015;DHT22;6066;48.138;16.402;2023-11-19T13:06:56;5.60;99.90
12015;DHT22;6066;48.138;16.402;2023-11-19T13:09:26;5.60;99.90
12015;DHT22;6066;48.138;16.402;2023-11-19T13:11:53;5.60;99.90
12015;DHT22;6066;48.138;16.402;2023-11-19T13:14:22;5.60;99.90
12015;DHT22;6066;48.138;16.402;2023-11-19T13:16:49;5.60;99.90
12015;DHT22;6066;48.138;16.402;2023-11-19T13:19:16;5.60;99.90
12015;DHT22;6066;48.138;16.402;2023-11-19T13:21:44;5.60;99.90
12015;DHT22;6066;48.138;16.402;2023-11-19T13:24:13;5.60;99.90
12015;DHT22;6066;48.138;16.402;2023-11-19T13:26:41;5.60;99.90
12015;DHT22;6066;48.138;16.402;2023-11-19T13:29:11;5.50;99.90
12015;DHT22;6066;48.138;16.402;2023-11-19T13:31:38;5.60;99.90
12015;DHT22;6066;48.138;16.402;2023-11-19T13:34:05;5.60;99.90
12015;DHT22;6066;48.138;16.402;2023-11-19T13:36:33;5.60;99.90
12015;DHT22;6066;48.138;16.402;2023-11-19T13:39:00;5.60;99.90
12015;DHT22;6066;48.138;16.402;2023-11-19T13:41:27;5.60;99.90
12015;DHT22;6066;48.138;16.402;2023-11-19T13:43:55;5.60;99.90
12015;DHT22;6066;48.138;16.402;2023-11-19T13:46:22;5.60;99.90
12015;DHT22;6066;48.138;16.402;2023-11-19T13:48:49;5.60;99.90
12015;DHT22;6066;48.138;16.402;2023-11-19T13:51:16;5.60;99.90
12015;DHT22;6066;48.138;16.402;2023-11-19T13:53:43;5.70;99.90
12015;DHT22;6066;48.138;16.402;2023-11-19T13:56:10;5.80;99.90
12015;DHT22;6066;48.138;16.402;2023-11-19T13:58:37;5.90;99.90
12015;DHT22;6066;48.138;16.402;2023-11-19T14:01:07;5.90;99.90
12015;DHT22;6066;48.138;16.402;2023-11-19T14:03:34;5.90;99.90
12015;DHT22;6066;48.138;16.402;2023-11-19T14:06:01;5.80;99.90
12015;DHT22;6066;48.138;16.402;2023-11-19T14:08:28;5.70;99.90
12015;DHT22;6066;48.138;16.402;2023-11-19T14:10:55;5.70;99.90
12015;DHT22;6066;48.138;16.402;2023-11-19T14:13:23;5.60;99.90
12015;DHT22;6066;48.138;16.402;2023-11-19T14:15:50;5.60;99.90
12015;DHT22;6066;48.138;16.402;2023-11-19T14:18:18;5.60;99.90
12015;DHT22;6066;48.138;16.402;2023-11-19T14:20:45;5.60;99.90
12015;DHT22;6066;48.138;16.402;2023-11-19T14:23:12;5.70;99.90
12015;DHT22;6066;48.138;16.402;2023-11-19T14:25:39;5.60;99.90
12015;DHT22;6066;48.138;16.402;2023-11-19T14:28:06;5.60;99.90
12015;DHT22;6066;48.138;16.402;2023-11-19T14:30:33;5.60;99.90
12015;DHT22;6066;48.138;16.402;2023-11-19T14:33:00;5.60;99.90
12015;DHT22;6066;48.138;16.402;2023-11-19T14:35:30;5.60;99.90
12015;DHT22;6066;48.138;16.402;2023-11-19T14:37:58;5.60;99.90
12015;DHT22;6066;48.138;16.402;2023-11-19T14:40:25;5.60;99.90
12015;DHT22;6066;48.138;16.402;2023-11-19T14:42:52;5.50;99.90
12015;DHT22;6066;48.138;16.402;2023-11-19T14:45:19;5.50;99.90
12015;DHT22;6066;48.138;16.402;2023-11-19T14:47:46;5.50;99.90
12015;DHT22;6066;48.138;16.402;2023-11-19T14:50:13;5.50;99.90
12015;DHT22;6066;48.138;16.402;2023-11-19T14:52:41;5.50;99.90
12015;DHT22;6066;48.138;16.402;2023-11-19T14:55:09;5.50;99.90
12015;DHT22;6066;48.138;16.402;2023-11-19T14:57:37;5.50;99.90
12015;DHT22;6066;48.138;16.402;2023-11-19T15:00:06;5.50;99.90
12015;DHT22;6066;48.138;16.402;2023-11-19T15:02:39;5.50;99.90
12015;DHT22;6066;48.138;16.402;2023-11-19T15:05:08;5.50;99.90
12015;DHT22;6066;48.138;16.402;2023-11-19T15:07:36;5.50;99.90
12015;DHT22;6066;48.138;16.402;2023-11-19T15:10:05;5.50;99.90
12015;DHT22;6066;48.138;16.402;2023-11-19T15:12:36;5.50;99.90
12015;DHT22;6066;48.138;16.402;2023-11-19T15:15:07;5.50;99.90
12015;DHT22;6066;48.138;16.402;2023-11-19T15:17:34;5.50;99.90
12015;DHT22;6066;48.138;16.402;2023-11-19T15:20:02;5.50;99.90
12015;DHT22;6066;48.138;16.402;2023-11-19T15:22:29;5.40;99.90
12015;DHT22;6066;48.138;16.402;2023-11-19T15:24:56;5.40;99.90
12015;DHT22;6066;48.138;16.402;2023-11-19T15:27:24;5.40;99.90
12015;DHT22;6066;48.138;16.402;2023-11-19T15:29:51;5.30;99.90
12015;DHT22;6066;48.138;16.402;2023-11-19T15:32:19;5.30;99.90
12015;DHT22;6066;48.138;16.402;2023-11-19T15:34:46;5.20;99.90
12015;DHT22;6066;48.138;16.402;2023-11-19T15:37:14;5.20;99.90
12015;DHT22;6066;48.138;16.402;2023-11-19T15:39:41;5.20;99.90
12015;DHT22;6066;48.138;16.402;2023-11-19T15:42:08;5.20;99.90
12015;DHT22;6066;48.138;16.402;2023-11-19T15:44:38;5.20;99.90
12015;DHT22;6066;48.138;16.402;2023-11-19T15:47:05;5.10;99.90
12015;DHT22;6066;48.138;16.402;2023-11-19T15:49:33;5.10;99.90
12015;DHT22;6066;48.138;16.402;2023-11-19T15:52:00;5.10;99.90
12015;DHT22;6066;48.138;16.402;2023-11-19T15:54:27;5.00;99.90